createdAt,value
2019-04-05T00:00:43.696Z,4.95
2019-04-05T00:01:43.688Z,4.95
2019-04-05T00:02:43.673Z,4.94
2019-04-05T00:03:43.660Z,4.96
2019-04-05T00:04:43.661Z,4.98
2019-04-05T00:05:43.680Z,4.96
2019-04-05T00:06:43.638Z,4.86
2019-04-05T00:07:43.618Z,4.92
2019-04-05T00:08:43.606Z,4.86
2019-04-05T00:09:43.598Z,4.94
2019-04-05T00:10:43.608Z,4.95
2019-04-05T00:11:43.573Z,4.94
2019-04-05T00:12:43.573Z,4.89
2019-04-05T00:13:43.555Z,4.88
2019-04-05T00:14:43.543Z,4.79
2019-04-05T00:15:43.548Z,4.88
2019-04-05T00:16:43.528Z,4.79
2019-04-05T00:17:43.509Z,4.83
2019-04-05T00:18:43.494Z,4.83
2019-04-05T00:19:43.485Z,4.79
2019-04-05T00:20:43.502Z,4.84
2019-04-05T00:21:43.461Z,4.83
2019-04-05T00:22:43.451Z,4.83
2019-04-05T00:23:43.442Z,4.77
2019-04-05T00:24:43.470Z,4.84
2019-04-05T00:25:43.430Z,4.83
2019-04-05T00:26:43.406Z,4.83
2019-04-05T00:27:43.396Z,4.79
2019-04-05T00:28:43.413Z,4.83
2019-04-05T00:29:43.376Z,4.79
2019-04-05T00:30:44.975Z,4.79
2019-04-05T00:31:43.354Z,4.79
2019-04-05T00:32:43.344Z,4.86
2019-04-05T00:33:43.331Z,4.86
2019-04-05T00:34:43.322Z,4.76
2019-04-05T00:35:43.326Z,4.77
2019-04-05T00:36:43.297Z,4.77
2019-04-05T00:37:43.289Z,4.76
2019-04-05T00:38:43.282Z,4.77
2019-04-05T00:39:43.261Z,4.83
2019-04-05T00:40:43.275Z,4.83
2019-04-05T00:41:43.257Z,4.86
2019-04-05T00:42:43.229Z,4.84
2019-04-05T00:43:43.223Z,4.83
2019-04-05T00:44:43.211Z,4.84
2019-04-05T00:45:43.217Z,4.79
2019-04-05T00:46:44.743Z,4.79
2019-04-05T00:47:43.179Z,4.80
2019-04-05T00:48:43.170Z,4.84
2019-04-05T00:49:43.158Z,4.80
2019-04-05T00:50:43.162Z,4.79
2019-04-05T00:51:43.172Z,4.83
2019-04-05T00:52:43.130Z,4.80
2019-04-05T00:53:43.118Z,4.83
2019-04-05T00:54:43.098Z,4.84
2019-04-05T00:55:43.089Z,4.84
2019-04-05T00:56:43.103Z,4.86
2019-04-05T00:57:43.066Z,4.80
2019-04-05T00:58:43.055Z,4.83
2019-04-05T00:59:43.046Z,4.88
2019-04-05T01:00:43.050Z,4.79
2019-04-05T01:01:43.044Z,4.79
2019-04-05T01:02:43.013Z,4.79
2019-04-05T01:03:43.012Z,4.79
2019-04-05T01:04:43.065Z,4.80
2019-04-05T01:05:42.980Z,4.86
2019-04-05T01:06:42.997Z,4.80
2019-04-05T01:07:42.958Z,4.88
2019-04-05T01:08:42.945Z,4.86
2019-04-05T01:09:42.937Z,4.83
2019-04-05T01:10:42.924Z,4.88
2019-04-05T01:11:42.948Z,4.86
2019-04-05T01:12:42.902Z,4.77
2019-04-05T01:13:42.907Z,4.83
2019-04-05T01:14:42.879Z,4.79
2019-04-05T01:15:42.871Z,4.86
2019-04-05T01:16:42.907Z,4.86
2019-04-05T01:17:42.848Z,4.86
2019-04-05T01:18:42.895Z,4.84
2019-04-05T01:19:42.826Z,4.83
2019-04-05T01:20:42.815Z,4.80
2019-04-05T01:21:42.827Z,4.92
2019-04-05T01:22:42.804Z,4.86
2019-04-05T01:23:42.785Z,4.84
2019-04-05T01:24:42.774Z,4.86
2019-04-05T01:25:42.764Z,4.95
2019-04-05T01:26:42.783Z,4.89
2019-04-05T01:27:42.735Z,4.84
2019-04-05T01:28:42.727Z,4.86
2019-04-05T01:29:42.715Z,4.88
2019-04-05T01:30:42.707Z,4.86
2019-04-05T01:31:42.715Z,4.80
2019-04-05T01:32:42.709Z,4.84
2019-04-05T01:33:42.699Z,4.77
2019-04-05T01:34:42.661Z,4.72
2019-04-05T01:35:42.650Z,4.76
2019-04-05T01:36:42.659Z,4.69
2019-04-05T01:37:42.632Z,4.73
2019-04-05T01:38:42.620Z,4.73
2019-04-05T01:39:42.607Z,4.67
2019-04-05T01:40:42.596Z,4.72
2019-04-05T01:41:42.621Z,4.76
2019-04-05T01:42:42.578Z,4.73
2019-04-05T01:43:42.596Z,4.79
2019-04-05T01:44:42.556Z,4.70
2019-04-05T01:45:53.104Z,4.77
2019-04-05T01:46:43.556Z,4.72
2019-04-05T01:47:42.525Z,4.73
2019-04-05T01:48:42.507Z,4.72
2019-04-05T01:49:42.508Z,4.73
2019-04-05T01:50:42.519Z,4.79
2019-04-05T01:51:42.496Z,4.75
2019-04-05T01:52:42.465Z,4.73
2019-04-05T01:53:42.454Z,4.79
2019-04-05T01:54:42.446Z,4.79
2019-04-05T01:55:42.455Z,4.75
2019-04-05T01:56:42.459Z,4.73
2019-04-05T01:57:42.414Z,4.73
2019-04-05T01:58:42.397Z,4.79
2019-04-05T01:59:42.387Z,4.79
2019-04-05T02:00:42.378Z,4.77
2019-04-05T02:01:42.368Z,4.79
2019-04-05T02:02:42.376Z,4.77
2019-04-05T02:03:42.353Z,4.80
2019-04-05T02:04:42.338Z,4.88
2019-04-05T02:05:42.325Z,4.83
2019-04-05T02:06:42.323Z,4.84
2019-04-05T02:07:42.329Z,4.86
2019-04-05T02:08:42.290Z,4.86
2019-04-05T02:09:42.294Z,4.88
2019-04-05T02:10:42.265Z,4.79
2019-04-05T02:11:42.258Z,4.79
2019-04-05T02:12:42.267Z,4.80
2019-04-05T02:13:42.232Z,4.79
2019-04-05T02:14:42.224Z,4.79
2019-04-05T02:15:42.209Z,4.83
2019-04-05T02:16:42.201Z,4.73
2019-04-05T02:17:42.205Z,4.76
2019-04-05T02:18:42.176Z,4.77
2019-04-05T02:19:42.172Z,4.75
2019-04-05T02:20:42.180Z,4.77
2019-04-05T02:21:42.143Z,4.79
2019-04-05T02:22:42.531Z,4.77
2019-04-05T02:23:42.127Z,4.70
2019-04-05T02:24:42.117Z,4.75
2019-04-05T02:25:42.103Z,4.72
2019-04-05T02:26:42.088Z,4.70
2019-04-05T02:27:42.077Z,4.73
2019-04-05T02:28:42.089Z,4.76
2019-04-05T02:29:42.068Z,4.69
2019-04-05T02:30:42.055Z,4.73
2019-04-05T02:31:42.039Z,4.70
2019-04-05T02:32:42.022Z,4.70
2019-04-05T02:33:42.032Z,4.75
2019-04-05T02:34:42.009Z,4.72
2019-04-05T02:35:41.990Z,4.76
2019-04-05T02:36:41.982Z,4.76
2019-04-05T02:37:41.991Z,4.76
2019-04-05T02:38:41.958Z,4.79
2019-04-05T02:39:41.951Z,4.73
2019-04-05T02:40:41.947Z,4.72
2019-04-05T02:41:41.925Z,4.79
2019-04-05T02:42:41.913Z,4.77
2019-04-05T02:43:41.923Z,4.70
2019-04-05T02:44:41.894Z,4.75
2019-04-05T02:45:41.878Z,4.80
2019-04-05T02:46:41.868Z,4.77
2019-04-05T02:47:41.874Z,4.76
2019-04-05T02:48:41.849Z,4.79
2019-04-05T02:49:41.844Z,4.80
2019-04-05T02:50:41.828Z,4.83
2019-04-05T02:51:41.812Z,4.76
2019-04-05T02:52:41.824Z,4.77
2019-04-05T02:53:41.793Z,4.80
2019-04-05T02:54:41.782Z,4.75
2019-04-05T02:55:41.773Z,4.77
2019-04-05T02:56:41.761Z,4.86
2019-04-05T02:57:41.783Z,4.77
2019-04-05T02:58:41.733Z,4.76
2019-04-05T02:59:41.733Z,4.86
2019-04-05T03:00:41.716Z,4.79
2019-04-05T03:01:41.710Z,4.83
2019-04-05T03:02:41.713Z,4.77
2019-04-05T03:03:41.846Z,4.77
2019-04-05T03:04:41.687Z,4.76
2019-04-05T03:05:41.664Z,4.80
2019-04-05T03:06:41.653Z,4.77
2019-04-05T03:07:41.666Z,4.76
2019-04-05T03:08:41.627Z,4.75
2019-04-05T03:09:41.623Z,4.75
2019-04-05T03:10:41.613Z,4.77
2019-04-05T03:11:41.602Z,4.77
2019-04-05T03:12:41.616Z,4.77
2019-04-05T03:13:41.575Z,4.73
2019-04-05T03:14:41.563Z,4.76
2019-04-05T03:15:41.553Z,4.76
2019-04-05T03:16:42.165Z,4.73
2019-04-05T03:17:41.557Z,4.77
2019-04-05T03:18:41.522Z,4.75
2019-04-05T03:19:41.505Z,4.73
2019-04-05T03:20:41.501Z,4.73
2019-04-05T03:21:41.507Z,4.73
2019-04-05T03:22:41.500Z,4.79
2019-04-05T03:23:41.463Z,4.73
2019-04-05T03:24:41.455Z,4.70
2019-04-05T03:25:41.439Z,4.69
2019-04-05T03:26:41.443Z,4.65
2019-04-05T03:27:41.441Z,4.65
2019-04-05T03:28:41.463Z,4.65
2019-04-05T03:29:41.410Z,4.67
2019-04-05T03:30:41.399Z,4.73
2019-04-05T03:31:41.385Z,4.67
2019-04-05T03:32:41.386Z,4.69
2019-04-05T03:33:41.357Z,4.65
2019-04-05T03:34:41.359Z,4.67
2019-04-05T03:35:41.337Z,4.64
2019-04-05T03:36:41.318Z,4.67
2019-04-05T03:37:41.318Z,4.72
2019-04-05T03:38:41.319Z,4.67
2019-04-05T03:39:41.294Z,4.67
2019-04-05T03:40:41.277Z,4.70
2019-04-05T03:41:41.265Z,4.62
2019-04-05T03:42:41.263Z,4.70
2019-04-05T03:43:41.269Z,4.64
2019-04-05T03:44:41.233Z,4.62
2019-04-05T03:45:41.257Z,4.61
2019-04-05T03:46:55.510Z,4.62
2019-04-05T03:47:42.240Z,4.64
2019-04-05T03:48:41.208Z,4.65
2019-04-05T03:49:41.179Z,4.72
2019-04-05T03:50:44.842Z,4.67
2019-04-05T03:51:41.177Z,4.65
2019-04-05T03:52:41.145Z,4.72
2019-04-05T03:53:41.161Z,4.64
2019-04-05T03:54:41.122Z,4.65
2019-04-05T03:55:41.113Z,4.65
2019-04-05T03:56:41.109Z,4.61
2019-04-05T03:57:41.090Z,4.72
2019-04-05T03:58:41.084Z,4.65
2019-04-05T03:59:41.091Z,4.64
2019-04-05T04:00:41.062Z,4.64
2019-04-05T04:01:41.054Z,4.69
2019-04-05T04:02:41.035Z,4.67
2019-04-05T04:03:41.030Z,4.72
2019-04-05T04:04:41.031Z,4.76
2019-04-05T04:05:41.007Z,4.75
2019-04-05T04:06:40.992Z,4.73
2019-04-05T04:07:40.987Z,4.70
2019-04-05T04:08:40.978Z,4.75
2019-04-05T04:09:40.980Z,4.72
2019-04-05T04:10:40.956Z,4.77
2019-04-05T04:11:40.945Z,4.73
2019-04-05T04:12:40.943Z,4.79
2019-04-05T04:13:40.927Z,4.72
2019-04-05T04:14:40.931Z,4.77
2019-04-05T04:15:40.918Z,4.73
2019-04-05T04:16:40.883Z,4.69
2019-04-05T04:17:40.876Z,4.65
2019-04-05T04:18:40.860Z,4.64
2019-04-05T04:19:40.849Z,4.67
2019-04-05T04:20:40.857Z,4.64
2019-04-05T04:21:40.842Z,4.69
2019-04-05T04:22:40.847Z,4.69
2019-04-05T04:23:40.805Z,4.67
2019-04-05T04:24:40.798Z,4.67
2019-04-05T04:25:40.802Z,4.59
2019-04-05T04:26:40.776Z,4.70
2019-04-05T04:27:40.765Z,4.65
2019-04-05T04:28:40.749Z,4.69
2019-04-05T04:29:40.758Z,4.70
2019-04-05T04:30:40.755Z,4.70
2019-04-05T04:31:40.720Z,4.69
2019-04-05T04:32:40.715Z,4.69
2019-04-05T04:33:40.707Z,4.72
2019-04-05T04:34:40.692Z,4.67
2019-04-05T04:35:40.707Z,4.70
2019-04-05T04:36:40.672Z,4.70
2019-04-05T04:37:40.652Z,4.73
2019-04-05T04:38:40.660Z,4.73
2019-04-05T04:39:40.631Z,4.70
2019-04-05T04:40:40.659Z,4.65
2019-04-05T04:41:40.606Z,4.72
2019-04-05T04:42:40.599Z,4.64
2019-04-05T04:43:40.587Z,4.69
2019-04-05T04:44:40.573Z,4.62
2019-04-05T04:45:40.581Z,4.58
2019-04-05T04:46:40.556Z,4.65
2019-04-05T04:47:40.544Z,4.62
2019-04-05T04:48:40.530Z,4.62
2019-04-05T04:49:40.523Z,4.58
2019-04-05T04:50:40.541Z,4.54
2019-04-05T04:51:40.497Z,4.58
2019-04-05T04:52:40.484Z,4.58
2019-04-05T04:53:40.476Z,4.47
2019-04-05T04:54:40.463Z,4.52
2019-04-05T04:55:40.471Z,4.54
2019-04-05T04:56:40.474Z,4.46
2019-04-05T04:57:40.431Z,4.47
2019-04-05T04:58:40.421Z,4.47
2019-04-05T04:59:40.407Z,4.54
2019-04-05T05:00:40.424Z,4.47
2019-04-05T05:01:40.392Z,4.51
2019-04-05T05:02:40.376Z,4.52
2019-04-05T05:03:40.553Z,4.44
2019-04-05T05:04:40.355Z,4.52
2019-04-05T05:05:40.373Z,4.52
2019-04-05T05:06:40.334Z,4.54
2019-04-05T05:07:40.322Z,4.51
2019-04-05T05:08:40.319Z,4.54
2019-04-05T05:09:40.305Z,4.57
2019-04-05T05:10:40.288Z,4.55
2019-04-05T05:11:40.294Z,4.57
2019-04-05T05:12:40.273Z,4.54
2019-04-05T05:13:40.255Z,4.51
2019-04-05T05:14:40.253Z,4.58
2019-04-05T05:15:40.236Z,4.61
2019-04-05T05:16:40.242Z,4.55
2019-04-05T05:17:40.220Z,4.59
2019-04-05T05:18:40.202Z,4.51
2019-04-05T05:19:40.191Z,4.51
2019-04-05T05:20:42.658Z,4.51
2019-04-05T05:21:40.222Z,4.58
2019-04-05T05:22:40.230Z,4.54
2019-04-05T05:23:40.170Z,4.59
2019-04-05T05:24:40.142Z,4.51
2019-04-05T05:25:40.128Z,4.57
2019-04-05T05:26:40.148Z,4.54
2019-04-05T05:27:40.133Z,4.51
2019-04-05T05:28:40.101Z,4.61
2019-04-05T05:29:40.113Z,4.54
2019-04-05T05:30:40.080Z,4.62
2019-04-05T05:31:40.102Z,4.55
2019-04-05T05:32:40.073Z,4.64
2019-04-05T05:33:40.039Z,4.51
2019-04-05T05:34:40.034Z,4.61
2019-04-05T05:35:40.060Z,4.54
2019-04-05T05:36:40.040Z,4.57
2019-04-05T05:37:40.003Z,4.59
2019-04-05T05:38:40.001Z,4.61
2019-04-05T05:39:39.983Z,4.62
2019-04-05T05:40:39.966Z,4.59
2019-04-05T05:41:39.957Z,4.67
2019-04-05T05:42:39.963Z,4.61
2019-04-05T05:43:39.935Z,4.58
2019-04-05T05:44:39.930Z,4.59
2019-04-05T05:45:39.962Z,4.62
2019-04-05T05:46:39.918Z,4.59
2019-04-05T05:47:50.981Z,4.62
2019-04-05T05:48:40.880Z,4.62
2019-04-05T05:49:39.879Z,4.69
2019-04-05T05:50:39.866Z,4.64
2019-04-05T05:51:39.847Z,4.72
2019-04-05T05:52:39.855Z,4.65
2019-04-05T05:53:39.826Z,4.69
2019-04-05T05:54:39.813Z,4.69
2019-04-05T05:55:39.800Z,4.72
2019-04-05T05:56:39.802Z,4.67
2019-04-05T05:57:40.559Z,4.67
2019-04-05T05:58:39.773Z,4.70
2019-04-05T05:59:39.757Z,4.69
2019-04-05T06:00:39.788Z,4.70
2019-04-05T06:01:39.790Z,4.69
2019-04-05T06:02:39.745Z,4.76
2019-04-05T06:03:39.712Z,4.75
2019-04-05T06:04:39.714Z,4.70
2019-04-05T06:05:39.735Z,4.76
2019-04-05T06:06:39.683Z,4.77
2019-04-05T06:07:39.718Z,4.76
2019-04-05T06:08:39.672Z,4.77
2019-04-05T06:09:39.652Z,4.80
2019-04-05T06:10:39.638Z,4.75
2019-04-05T06:11:39.627Z,4.75
2019-04-05T06:12:39.621Z,4.76
2019-04-05T06:13:39.647Z,4.86
2019-04-05T06:14:39.595Z,4.79
2019-04-05T06:15:39.584Z,4.83
2019-04-05T06:16:46.189Z,4.83
2019-04-05T06:17:40.567Z,4.79
2019-04-05T06:18:39.583Z,4.79
2019-04-05T06:19:39.547Z,4.89
2019-04-05T06:20:39.535Z,4.84
2019-04-05T06:21:39.519Z,4.86
2019-04-05T06:22:39.512Z,4.84
2019-04-05T06:23:39.535Z,4.84
2019-04-05T06:24:39.493Z,4.86
2019-04-05T06:25:39.478Z,4.88
2019-04-05T06:26:39.465Z,4.92
2019-04-05T06:27:39.460Z,4.95
2019-04-05T06:28:39.579Z,4.94
2019-04-05T06:29:39.432Z,4.92
2019-04-05T06:30:39.423Z,4.98
2019-04-05T06:31:39.413Z,4.89
2019-04-05T06:32:39.403Z,4.94
2019-04-05T06:33:39.415Z,4.99
2019-04-05T06:34:39.374Z,4.91
2019-04-05T06:35:39.371Z,4.96
2019-04-05T06:36:39.354Z,4.86
2019-04-05T06:37:39.341Z,4.94
2019-04-05T06:38:39.362Z,4.91
2019-04-05T06:39:39.323Z,4.88
2019-04-05T06:40:40.940Z,4.95
2019-04-05T06:41:39.314Z,4.98
2019-04-05T06:42:39.291Z,4.99
2019-04-05T06:43:39.353Z,4.88
2019-04-05T06:44:39.280Z,4.94
2019-04-05T06:45:39.255Z,4.96
2019-04-05T06:46:39.243Z,4.98
2019-04-05T06:47:39.241Z,5.02
2019-04-05T06:48:39.221Z,5.02
2019-04-05T06:49:39.227Z,4.99
2019-04-05T06:50:39.202Z,5.09
2019-04-05T06:51:39.188Z,5.04
2019-04-05T06:52:39.182Z,5.01
2019-04-05T06:53:39.166Z,5.10
2019-04-05T06:54:39.173Z,5.16
2019-04-05T06:55:39.146Z,5.22
2019-04-05T06:56:39.134Z,5.14
2019-04-05T06:57:39.225Z,5.17
2019-04-05T06:58:39.111Z,5.22
2019-04-05T06:59:39.119Z,5.31
2019-04-05T07:00:39.088Z,5.28
2019-04-05T07:01:39.103Z,5.30
2019-04-05T07:02:39.066Z,5.34
2019-04-05T07:03:39.056Z,5.30
2019-04-05T07:04:39.076Z,5.27
2019-04-05T07:05:39.033Z,5.43
2019-04-05T07:06:39.022Z,5.45
2019-04-05T07:07:39.018Z,5.40
2019-04-05T07:08:39.008Z,5.43
2019-04-05T07:09:39.014Z,5.52
2019-04-05T07:10:38.981Z,5.48
2019-04-05T07:11:38.966Z,5.50
2019-04-05T07:12:38.957Z,5.49
2019-04-05T07:13:38.952Z,5.57
2019-04-05T07:14:38.935Z,5.52
2019-04-05T07:15:38.943Z,5.59
2019-04-05T07:16:38.913Z,5.66
2019-04-05T07:17:38.903Z,5.59
2019-04-05T07:18:38.907Z,5.66
2019-04-05T07:19:38.880Z,5.68
2019-04-05T07:20:38.888Z,5.64
2019-04-05T07:21:38.861Z,5.60
2019-04-05T07:22:39.546Z,5.67
2019-04-05T07:23:38.841Z,5.75
2019-04-05T07:24:38.823Z,5.70
2019-04-05T07:25:38.837Z,5.71
2019-04-05T07:26:38.807Z,5.70
2019-04-05T07:27:38.791Z,5.73
2019-04-05T07:28:38.781Z,5.78
2019-04-05T07:29:38.771Z,5.77
2019-04-05T07:30:38.777Z,5.77
2019-04-05T07:31:38.754Z,5.78
2019-04-05T07:32:38.736Z,5.71
2019-04-05T07:33:38.726Z,5.75
2019-04-05T07:34:38.714Z,5.85
2019-04-05T07:35:38.726Z,5.81
2019-04-05T07:36:38.690Z,5.81
2019-04-05T07:37:38.684Z,5.82
2019-04-05T07:38:38.673Z,5.91
2019-04-05T07:39:38.663Z,5.93
2019-04-05T07:40:38.669Z,5.81
2019-04-05T07:41:38.637Z,5.88
2019-04-05T07:42:38.627Z,5.83
2019-04-05T07:43:38.615Z,5.93
2019-04-05T07:44:38.605Z,5.96
2019-04-05T07:45:38.594Z,6.00
2019-04-05T07:46:38.605Z,5.96
2019-04-05T07:47:38.570Z,5.95
2019-04-05T07:48:44.666Z,6.07
2019-04-05T07:49:39.549Z,6.10
2019-04-05T07:50:38.558Z,6.07
2019-04-05T07:51:38.545Z,6.14
2019-04-05T07:52:38.519Z,6.25
2019-04-05T07:53:38.504Z,6.18
2019-04-05T07:54:38.502Z,6.28
2019-04-05T07:55:38.481Z,6.26
2019-04-05T07:56:38.552Z,6.30
2019-04-05T07:57:38.460Z,6.19
2019-04-05T07:58:38.458Z,6.25
2019-04-05T07:59:38.437Z,6.30
2019-04-05T08:00:38.428Z,6.32
2019-04-05T08:01:38.436Z,6.41
2019-04-05T08:02:38.408Z,6.36
2019-04-05T08:03:38.400Z,6.40
2019-04-05T08:04:38.388Z,6.35
2019-04-05T08:05:38.375Z,6.47
2019-04-05T08:06:38.381Z,6.44
2019-04-05T08:07:38.356Z,6.50
2019-04-05T08:08:38.340Z,6.46
2019-04-05T08:09:38.332Z,6.44
2019-04-05T08:10:38.327Z,6.58
2019-04-05T08:11:38.328Z,6.56
2019-04-05T08:12:38.299Z,6.62
2019-04-05T08:13:38.285Z,6.63
2019-04-05T08:14:38.310Z,6.63
2019-04-05T08:15:38.266Z,6.66
2019-04-05T08:16:38.271Z,6.71
2019-04-05T08:17:38.242Z,6.72
2019-04-05T08:18:38.231Z,6.76
2019-04-05T08:19:38.229Z,6.77
2019-04-05T08:20:38.213Z,6.89
2019-04-05T08:21:38.218Z,6.77
2019-04-05T08:22:38.189Z,6.94
2019-04-05T08:23:38.189Z,6.90
2019-04-05T08:24:38.173Z,7.13
2019-04-05T08:25:40.979Z,7.13
2019-04-05T08:26:38.166Z,7.17
2019-04-05T08:27:38.149Z,7.15
2019-04-05T08:28:38.127Z,7.20
2019-04-05T08:29:38.120Z,7.23
2019-04-05T08:30:38.103Z,7.26
2019-04-05T08:31:38.111Z,7.24
2019-04-05T08:32:38.125Z,7.26
2019-04-05T08:33:38.072Z,7.29
2019-04-05T08:34:38.061Z,7.34
2019-04-05T08:35:38.048Z,7.35
2019-04-05T08:36:38.063Z,7.42
2019-04-05T08:37:38.035Z,7.45
2019-04-05T08:38:39.772Z,7.56
2019-04-05T08:39:38.008Z,7.55
2019-04-05T08:40:37.993Z,7.71
2019-04-05T08:41:38.004Z,7.63
2019-04-05T08:42:37.976Z,7.72
2019-04-05T08:43:37.959Z,7.72
2019-04-05T08:44:37.949Z,7.82
2019-04-05T08:45:37.937Z,7.92
2019-04-05T08:46:37.934Z,8.03
2019-04-05T08:47:37.935Z,8.03
2019-04-05T08:48:37.905Z,8.20
2019-04-05T08:49:37.892Z,8.22
2019-04-05T08:50:37.885Z,8.25
2019-04-05T08:51:37.876Z,8.22
2019-04-05T08:52:37.887Z,8.18
2019-04-05T08:53:37.850Z,8.21
2019-04-05T08:54:37.864Z,8.18
2019-04-05T08:55:37.829Z,8.21
2019-04-05T08:56:37.827Z,8.12
2019-04-05T08:57:37.829Z,8.25
2019-04-05T08:58:37.797Z,8.17
2019-04-05T08:59:37.790Z,8.26
2019-04-05T09:00:37.775Z,8.20
2019-04-05T09:01:37.767Z,8.22
2019-04-05T09:02:37.791Z,8.28
2019-04-05T09:03:37.743Z,8.26
2019-04-05T09:04:37.733Z,8.30
2019-04-05T09:05:37.739Z,8.26
2019-04-05T09:06:37.711Z,8.30
2019-04-05T09:07:37.724Z,8.28
2019-04-05T09:08:37.689Z,8.32
2019-04-05T09:09:37.678Z,8.33
2019-04-05T09:10:37.674Z,8.30
2019-04-05T09:11:37.657Z,8.32
2019-04-05T09:12:37.647Z,8.32
2019-04-05T09:13:37.658Z,8.32
2019-04-05T09:14:37.628Z,8.35
2019-04-05T09:15:37.623Z,8.36
2019-04-05T09:16:37.604Z,8.30
2019-04-05T09:17:37.687Z,8.37
2019-04-05T09:18:37.600Z,8.40
2019-04-05T09:19:37.584Z,8.39
2019-04-05T09:20:37.572Z,8.40
2019-04-05T09:21:40.411Z,8.37
2019-04-05T09:22:37.566Z,8.45
2019-04-05T09:23:37.530Z,8.40
2019-04-05T09:24:37.517Z,8.37
2019-04-05T09:25:37.515Z,8.54
2019-04-05T09:26:37.498Z,8.45
2019-04-05T09:27:37.510Z,8.47
2019-04-05T09:28:37.477Z,8.47
2019-04-05T09:29:37.465Z,8.51
2019-04-05T09:30:37.454Z,8.62
2019-04-05T09:31:37.442Z,8.57
2019-04-05T09:32:37.450Z,8.58
2019-04-05T09:33:37.426Z,8.55
2019-04-05T09:34:37.413Z,8.62
2019-04-05T09:35:37.400Z,8.66
2019-04-05T09:36:37.390Z,8.66
2019-04-05T09:37:37.408Z,8.68
2019-04-05T09:38:37.383Z,8.71
2019-04-05T09:39:37.365Z,8.75
2019-04-05T09:40:37.351Z,8.75
2019-04-05T09:41:37.336Z,8.84
2019-04-05T09:42:37.428Z,8.79
2019-04-05T09:43:37.317Z,8.81
2019-04-05T09:44:37.313Z,8.83
2019-04-05T09:45:37.293Z,8.90
2019-04-05T09:46:46.905Z,8.83
2019-04-05T09:47:38.291Z,8.84
2019-04-05T09:48:37.267Z,8.94
2019-04-05T09:49:37.413Z,8.94
2019-04-05T09:50:37.239Z,8.86
2019-04-05T09:51:37.233Z,8.87
2019-04-05T09:52:44.790Z,8.91
2019-04-05T09:53:37.220Z,8.91
2019-04-05T09:54:37.196Z,8.94
2019-04-05T09:55:37.187Z,8.86
2019-04-05T09:56:37.175Z,8.93
2019-04-05T09:57:37.164Z,8.96
2019-04-05T09:58:37.175Z,8.90
2019-04-05T09:59:37.147Z,8.88
2019-04-05T10:00:37.132Z,8.86
2019-04-05T10:01:37.122Z,9.01
2019-04-05T10:02:37.115Z,8.93
2019-04-05T10:03:37.120Z,9.04
2019-04-05T10:04:37.094Z,9.09
2019-04-05T10:05:37.092Z,9.09
2019-04-05T10:06:37.073Z,9.21
2019-04-05T10:07:44.122Z,9.15
2019-04-05T10:08:38.066Z,9.25
2019-04-05T10:09:37.043Z,9.30
2019-04-05T10:10:37.031Z,9.31
2019-04-05T10:11:37.028Z,9.34
2019-04-05T10:12:37.016Z,9.39
2019-04-05T10:13:37.019Z,9.49
2019-04-05T10:14:36.982Z,9.52
2019-04-05T10:15:36.975Z,9.53
2019-04-05T10:16:36.967Z,9.48
2019-04-05T10:17:36.965Z,9.48
2019-04-05T10:18:36.956Z,9.58
2019-04-05T10:19:48.969Z,9.60
2019-04-05T10:20:39.067Z,9.66
2019-04-05T10:21:36.912Z,9.46
2019-04-05T10:22:36.902Z,9.56
2019-04-05T10:23:36.898Z,9.60
2019-04-05T10:24:36.901Z,9.53
2019-04-05T10:25:36.885Z,9.52
2019-04-05T10:26:36.881Z,9.53
2019-04-05T10:27:36.854Z,9.48
2019-04-05T10:28:36.877Z,9.42
2019-04-05T10:29:36.872Z,9.43
2019-04-05T10:30:36.817Z,9.49
2019-04-05T10:31:36.806Z,9.42
2019-04-05T10:32:36.820Z,9.34
2019-04-05T10:33:36.798Z,9.34
2019-04-05T10:34:36.794Z,9.34
2019-04-05T10:35:36.764Z,9.34
2019-04-05T10:36:36.756Z,9.32
2019-04-05T10:37:36.747Z,9.38
2019-04-05T10:38:36.730Z,9.38
2019-04-05T10:39:36.735Z,9.42
2019-04-05T10:40:36.714Z,9.42
2019-04-05T10:41:36.708Z,9.56
2019-04-05T10:42:36.689Z,9.49
2019-04-05T10:43:36.678Z,9.56
2019-04-05T10:44:36.687Z,9.60
2019-04-05T10:45:36.655Z,9.60
2019-04-05T10:46:36.647Z,9.76
2019-04-05T10:47:36.635Z,9.73
2019-04-05T10:48:36.631Z,9.73
2019-04-05T10:49:36.630Z,9.83
2019-04-05T10:50:36.605Z,9.86
2019-04-05T10:51:36.593Z,9.82
2019-04-05T10:52:36.579Z,9.89
2019-04-05T10:53:36.574Z,9.88
2019-04-05T10:54:36.585Z,9.85
2019-04-05T10:55:36.551Z,9.99
2019-04-05T10:56:36.538Z,10.04
2019-04-05T10:57:36.526Z,10.09
2019-04-05T10:58:36.519Z,10.07
2019-04-05T10:59:38.481Z,10.10
2019-04-05T11:00:36.495Z,10.07
2019-04-05T11:01:36.485Z,10.14
2019-04-05T11:02:36.474Z,10.19
2019-04-05T11:03:36.470Z,10.21
2019-04-05T11:04:36.449Z,10.22
2019-04-05T11:05:36.458Z,10.17
2019-04-05T11:06:36.429Z,10.15
2019-04-05T11:07:36.428Z,10.24
2019-04-05T11:08:36.431Z,10.28
2019-04-05T11:09:36.397Z,10.17
2019-04-05T11:10:36.419Z,10.18
2019-04-05T11:11:36.376Z,10.19
2019-04-05T11:12:36.468Z,10.21
2019-04-05T11:13:36.355Z,10.09
2019-04-05T11:14:36.348Z,10.15
2019-04-05T11:15:36.353Z,10.25
2019-04-05T11:16:36.322Z,10.30
2019-04-05T11:17:36.309Z,10.39
2019-04-05T11:18:36.303Z,10.44
2019-04-05T11:19:36.483Z,10.43
2019-04-05T11:20:36.304Z,10.46
2019-04-05T11:21:36.279Z,10.58
2019-04-05T11:22:36.266Z,10.55
2019-04-05T11:23:36.252Z,10.60
2019-04-05T11:24:36.236Z,10.62
2019-04-05T11:25:36.255Z,10.66
2019-04-05T11:26:36.215Z,10.65
2019-04-05T11:27:36.208Z,10.60
2019-04-05T11:28:36.194Z,10.62
2019-04-05T11:29:36.201Z,10.62
2019-04-05T11:30:36.188Z,10.60
2019-04-05T11:31:36.166Z,10.62
2019-04-05T11:32:36.155Z,10.56
2019-04-05T11:33:36.154Z,10.68
2019-04-05T11:34:36.137Z,10.58
2019-04-05T11:35:36.145Z,10.60
2019-04-05T11:36:36.107Z,10.65
2019-04-05T11:37:36.097Z,10.56
2019-04-05T11:38:36.083Z,10.59
2019-04-05T11:39:36.074Z,10.59
2019-04-05T11:40:36.074Z,10.65
2019-04-05T11:41:36.076Z,10.66
2019-04-05T11:42:36.053Z,10.77
2019-04-05T11:43:36.043Z,10.77
2019-04-05T11:44:36.020Z,10.65
2019-04-05T11:45:36.009Z,10.62
2019-04-05T11:46:36.044Z,10.63
2019-04-05T11:47:35.985Z,10.68
2019-04-05T11:48:35.979Z,10.74
2019-04-05T11:49:35.968Z,10.80
2019-04-05T11:50:35.965Z,10.80
2019-04-05T11:51:35.965Z,10.77
2019-04-05T11:52:35.930Z,10.77
2019-04-05T11:53:35.931Z,10.74
2019-04-05T11:54:35.918Z,10.63
2019-04-05T11:55:35.903Z,10.66
2019-04-05T11:56:35.940Z,10.68
2019-04-05T11:57:35.888Z,10.74
2019-04-05T11:58:35.870Z,10.81
2019-04-05T11:59:35.865Z,10.71
2019-04-05T12:00:35.847Z,10.80
2019-04-05T12:01:35.836Z,10.81
2019-04-05T12:02:35.848Z,10.78
2019-04-05T12:03:35.818Z,10.74
2019-04-05T12:04:35.803Z,10.77
2019-04-05T12:05:35.796Z,10.73
2019-04-05T12:06:35.794Z,10.74
2019-04-05T12:07:35.818Z,10.71
2019-04-05T12:08:35.788Z,10.77
2019-04-05T12:09:35.754Z,10.73
2019-04-05T12:10:35.736Z,10.73
2019-04-05T12:11:35.740Z,10.77
2019-04-05T12:12:35.738Z,10.70
2019-04-05T12:13:35.707Z,10.74
2019-04-05T12:14:36.637Z,10.77
2019-04-05T12:15:36.431Z,10.80
2019-04-05T12:16:36.210Z,10.73
2019-04-05T12:17:35.832Z,10.71
2019-04-05T12:18:35.655Z,10.70
2019-04-05T12:19:38.002Z,10.62
2019-04-05T12:20:47.855Z,10.62
2019-04-05T12:21:36.645Z,10.70
2019-04-05T12:22:35.652Z,10.62
2019-04-05T12:23:35.612Z,10.60
2019-04-05T12:24:35.588Z,10.60
2019-04-05T12:25:35.581Z,10.60
2019-04-05T12:26:35.563Z,10.68
2019-04-05T12:27:35.569Z,10.66
2019-04-05T12:28:35.567Z,10.60
2019-04-05T12:29:35.619Z,10.59
2019-04-05T12:30:35.566Z,10.65
2019-04-05T12:31:35.518Z,10.66
2019-04-05T12:32:41.029Z,10.63
2019-04-05T12:33:36.504Z,10.55
2019-04-05T12:34:35.490Z,10.63
2019-04-05T12:35:37.563Z,10.58
2019-04-05T12:36:35.456Z,10.65
2019-04-05T12:37:35.445Z,10.66
2019-04-05T12:38:35.451Z,10.62
2019-04-05T12:39:37.157Z,10.62
2019-04-05T12:40:35.419Z,10.62
2019-04-05T12:41:35.400Z,10.56
2019-04-05T12:42:35.396Z,10.63
2019-04-05T12:43:35.443Z,10.53
2019-04-05T12:44:35.367Z,10.66
2019-04-05T12:45:35.356Z,10.63
2019-04-05T12:46:35.348Z,10.53
2019-04-05T12:47:35.363Z,10.51
2019-04-05T12:48:35.452Z,10.43
2019-04-05T12:49:35.319Z,10.43
2019-04-05T12:50:35.311Z,10.42
2019-04-05T12:51:35.295Z,10.56
2019-04-05T12:52:35.286Z,10.55
2019-04-05T12:53:35.289Z,10.51
2019-04-05T12:54:35.271Z,10.46
2019-04-05T12:55:35.249Z,10.55
2019-04-05T12:56:35.269Z,10.60
2019-04-05T12:57:35.259Z,10.59
2019-04-05T12:58:35.249Z,10.59
2019-04-05T12:59:35.204Z,10.60
2019-04-05T13:00:35.201Z,10.58
2019-04-05T13:01:35.185Z,10.60
2019-04-05T13:02:36.219Z,10.55
2019-04-05T13:03:35.189Z,10.62
2019-04-05T13:04:35.151Z,10.58
2019-04-05T13:05:35.142Z,10.52
2019-04-05T13:06:35.139Z,10.43
2019-04-05T13:07:35.390Z,10.47
2019-04-05T13:08:35.114Z,10.47
2019-04-05T13:09:35.127Z,10.46
2019-04-05T13:10:35.104Z,10.59
2019-04-05T13:11:35.096Z,10.65
2019-04-05T13:12:35.097Z,10.59
2019-04-05T13:13:35.055Z,10.59